Time;durP1;ratioP1;P1;durP2;ratioP2;P2;SDS_P1;SDS_P2;PMS_P1;PMS_P2;Temp;Humidity;BMP_temperature;BMP_pressure;BME280_temperature;BME280_humidity;BME280_pressure;Samples;Min_cycle;Max_cycle;Signal;HPM_P1;HPM_P2
2022/04/23 00:01:42;;;;;;;11.80;9.07;;;12.70;97.10;;;;;;5095402;28;20042;-41
2022/04/23 00:04:12;;;;;;;13.90;10.93;;;12.70;97.40;;;;;;5085874;28;20032;-43
2022/04/23 00:06:38;;;;;;;11.93;9.70;;;12.60;97.60;;;;;;5094508;28;20063;-42
2022/04/23 00:09:04;;;;;;;12.13;9.70;;;12.60;97.70;;;;;;5084480;28;20024;-41
2022/04/23 00:11:30;;;;;;;11.48;10.27;;;12.60;97.90;;;;;;5096600;28;20077;-42
2022/04/23 00:13:56;;;;;;;12.45;10.27;;;12.60;97.90;;;;;;5083669;28;20024;-40
2022/04/23 00:16:25;;;;;;;12.07;10.80;;;12.60;98.00;;;;;;5096465;28;20045;-41
2022/04/23 00:18:53;;;;;;;12.18;10.88;;;12.60;98.20;;;;;;5084181;28;20043;-41
2022/04/23 00:21:19;;;;;;;13.13;9.93;;;12.50;98.20;;;;;;5096122;28;20057;-41
2022/04/23 00:23:47;;;;;;;14.75;10.98;;;12.50;98.40;;;;;;5084322;28;20028;-41
2022/04/23 00:26:13;;;;;;;11.45;9.55;;;12.50;98.30;;;;;;5093793;28;20059;-41
2022/04/23 00:28:38;;;;;;;12.45;10.95;;;12.50;98.40;;;;;;5086578;28;20109;-39
2022/04/23 00:31:05;;;;;;;11.70;10.50;;;12.40;98.60;;;;;;5090881;28;20054;-40
2022/04/23 00:33:34;;;;;;;13.30;10.48;;;12.40;98.70;;;;;;5088528;28;20504;-43
2022/04/23 00:35:59;;;;;;;12.27;10.55;;;12.40;98.70;;;;;;5089053;28;20588;-41
2022/04/23 00:38:25;;;;;;;11.93;10.20;;;12.40;98.80;;;;;;5091539;28;20048;-41
2022/04/23 00:40:51;;;;;;;13.10;11.23;;;12.40;98.90;;;;;;5085801;28;20020;-43
2022/04/23 00:43:30;;;;;;;13.57;11.65;;;12.30;99.20;;;;;;5094076;28;20123;-42
2022/04/23 00:45:57;;;;;;;14.98;12.95;;;12.30;99.10;;;;;;5085431;28;20595;-42
2022/04/23 00:48:24;;;;;;;12.30;11.00;;;12.30;99.50;;;;;;5093468;28;20498;-42
2022/04/23 00:50:55;;;;;;;13.30;11.90;;;12.20;99.40;;;;;;5086729;28;20023;-41
2022/04/23 00:53:22;;;;;;;14.98;13.27;;;12.30;99.60;;;;;;5099034;28;20345;-42
2022/04/23 00:55:48;;;;;;;17.83;12.70;;;12.20;99.90;;;;;;5086976;28;20044;-42
2022/04/23 00:58:17;;;;;;;15.40;12.75;;;12.20;99.90;;;;;;5099101;28;20042;-41
2022/04/23 01:00:46;;;;;;;14.43;11.98;;;12.10;99.90;;;;;;5087423;28;20032;-41
2022/04/23 01:03:13;;;;;;;17.05;12.30;;;12.10;99.90;;;;;;5098790;28;20041;-40
2022/04/23 01:05:44;;;;;;;16.50;13.88;;;12.10;99.90;;;;;;5087228;28;20550;-41
2022/04/23 01:08:12;;;;;;;15.07;13.48;;;12.10;99.90;;;;;;5099371;28;20028;-42
2022/04/23 01:10:38;;;;;;;17.05;15.25;;;12.00;99.90;;;;;;5087535;28;20032;-41
2022/04/23 01:13:03;;;;;;;17.40;14.82;;;12.00;99.90;;;;;;5099870;28;20031;-41
2022/04/23 01:15:29;;;;;;;19.35;16.15;;;12.00;99.90;;;;;;5086762;28;20024;-41
2022/04/23 01:17:54;;;;;;;20.50;15.30;;;12.00;99.90;;;;;;5097299;28;20043;-41
2022/04/23 01:20:20;;;;;;;16.48;14.57;;;12.00;99.90;;;;;;5090790;28;20040;-41
2022/04/23 01:22:46;;;;;;;18.15;15.68;;;12.00;99.90;;;;;;5093185;28;20051;-38
2022/04/23 01:25:13;;;;;;;18.70;15.43;;;12.00;99.90;;;;;;5100161;28;20016;-41
2022/04/23 01:27:40;;;;;;;18.83;15.43;;;12.00;99.90;;;;;;5102498;28;20032;-43
2022/04/23 01:30:08;;;;;;;18.98;15.68;;;12.00;99.90;;;;;;5098660;28;20024;-40
2022/04/23 01:32:34;;;;;;;20.55;17.33;;;12.00;99.90;;;;;;5103640;28;20043;-40
2022/04/23 01:34:59;;;;;;;17.77;14.90;;;12.00;99.90;;;;;;5097317;28;20109;-42
2022/04/23 01:37:25;;;;;;;17.20;15.38;;;12.00;99.90;;;;;;5104655;28;20769;-41
2022/04/23 01:39:51;;;;;;;22.00;16.38;;;12.00;99.90;;;;;;5096137;28;20119;-41
2022/04/23 01:42:23;;;;;;;20.13;18.02;;;12.00;99.90;;;;;;5105715;28;20103;-39
2022/04/23 01:44:50;;;;;;;19.25;16.77;;;12.00;99.90;;;;;;5094907;28;20456;-39
2022/04/23 01:47:17;;;;;;;18.65;16.60;;;12.00;99.90;;;;;;5089094;28;20499;-41
2022/04/23 01:49:44;;;;;;;16.98;14.70;;;12.00;99.90;;;;;;5102592;28;20028;-41
2022/04/23 01:52:10;;;;;;;19.50;17.20;;;12.10;99.90;;;;;;5089843;28;20100;-40
2022/04/23 01:54:36;;;;;;;21.02;18.52;;;12.10;99.90;;;;;;5100860;28;20039;-42
2022/04/23 01:57:02;;;;;;;21.92;17.23;;;12.10;99.90;;;;;;5086655;28;20401;-40
2022/04/23 01:59:28;;;;;;;20.60;18.23;;;12.20;99.90;;;;;;5096857;28;20467;-41
2022/04/23 02:01:53;;;;;;;23.88;18.63;;;12.20;99.90;;;;;;5087651;28;20032;-42
2022/04/23 02:04:19;;;;;;;19.70;17.42;;;12.20;99.90;;;;;;5094323;28;20035;-41
2022/04/23 02:06:46;;;;;;;20.15;16.88;;;12.20;99.90;;;;;;5090780;28;20035;-41
2022/04/23 02:09:11;;;;;;;23.45;18.52;;;12.20;99.90;;;;;;5092219;28;20023;-42
2022/04/23 02:11:37;;;;;;;20.35;18.15;;;12.20;99.90;;;;;;5092051;28;20044;-42
2022/04/23 02:14:03;;;;;;;21.38;18.90;;;12.20;99.90;;;;;;5089131;28;20826;-42
2022/04/23 02:16:29;;;;;;;19.88;17.73;;;12.30;99.90;;;;;;5094922;28;20047;-42
2022/04/23 02:18:57;;;;;;;18.60;15.68;;;12.30;99.90;;;;;;5086937;28;20069;-41
2022/04/23 02:21:26;;;;;;;21.02;17.52;;;12.30;99.90;;;;;;5097395;28;20562;-41
2022/04/23 02:23:53;;;;;;;18.52;16.52;;;12.20;99.90;;;;;;5087246;28;20054;-42
2022/04/23 02:26:20;;;;;;;21.83;18.00;;;12.20;99.90;;;;;;5087223;28;20046;-40
2022/04/23 02:28:47;;;;;;;20.88;17.73;;;12.20;99.90;;;;;;5087857;28;20062;-40
2022/04/23 02:31:12;;;;;;;20.45;17.38;;;12.10;99.90;;;;;;5094172;28;20019;-42
2022/04/23 02:33:38;;;;;;;22.45;18.42;;;12.10;99.90;;;;;;5105845;28;20031;-41
2022/04/23 02:36:06;;;;;;;20.90;18.73;;;12.10;99.90;;;;;;5092932;28;20046;-42
2022/04/23 02:38:32;;;;;;;22.30;18.00;;;12.10;99.90;;;;;;5105818;28;20023;-42
2022/04/23 02:40:57;;;;;;;19.65;17.58;;;12.10;99.90;;;;;;5093350;28;20085;-41
2022/04/23 02:43:23;;;;;;;20.52;18.30;;;12.10;99.90;;;;;;5105026;28;20606;-43
2022/04/23 02:45:49;;;;;;;22.58;18.38;;;12.10;99.90;;;;;;5096526;28;20030;-42
2022/04/23 02:48:14;;;;;;;20.83;17.90;;;12.10;99.90;;;;;;5102202;28;20487;-43
2022/04/23 02:50:39;;;;;;;21.02;18.73;;;12.00;99.90;;;;;;5098757;28;20673;-42
2022/04/23 02:53:06;;;;;;;24.95;19.88;;;12.00;99.90;;;;;;5099691;28;20028;-41
2022/04/23 02:55:33;;;;;;;20.58;18.38;;;12.00;99.90;;;;;;5099816;28;20043;-42
2022/04/23 02:58:04;;;;;;;22.52;18.63;;;11.90;99.90;;;;;;5096952;28;20058;-42
2022/04/23 03:00:30;;;;;;;23.90;20.63;;;11.90;99.90;;;;;;5101903;28;20072;-40
2022/04/23 03:02:56;;;;;;;23.40;20.80;;;11.90;99.90;;;;;;5095243;28;20043;-41
2022/04/23 03:05:21;;;;;;;25.88;20.55;;;11.80;99.90;;;;;;5104074;28;20704;-41
2022/04/23 03:07:48;;;;;;;23.83;20.27;;;11.80;99.90;;;;;;5093383;28;20749;-42
2022/04/23 03:10:16;;;;;;;21.88;19.40;;;11.80;99.90;;;;;;5104479;28;20037;-41
2022/04/23 03:12:42;;;;;;;23.83;19.77;;;11.80;99.90;;;;;;5093186;28;20562;-41
2022/04/23 03:15:10;;;;;;;21.20;18.15;;;11.80;99.90;;;;;;5105081;28;20023;-40
2022/04/23 03:17:36;;;;;;;25.95;21.25;;;11.80;99.90;;;;;;5091740;28;20032;-40
2022/04/23 03:20:04;;;;;;;23.23;19.85;;;11.70;99.90;;;;;;5105793;28;20123;-43
2022/04/23 03:22:32;;;;;;;21.38;19.08;;;11.70;99.90;;;;;;5090794;28;20629;-42
2022/04/23 03:24:57;;;;;;;23.17;20.55;;;11.70;99.90;;;;;;5101748;28;20028;-41
2022/04/23 03:27:23;;;;;;;22.13;19.55;;;11.70;99.90;;;;;;5095830;28;20069;-41
2022/04/23 03:29:49;;;;;;;24.73;20.83;;;11.60;99.90;;;;;;5085885;28;20028;-40
2022/04/23 03:32:14;;;;;;;22.33;19.92;;;11.60;99.90;;;;;;5092840;28;20359;-41
2022/04/23 03:34:40;;;;;;;23.42;20.88;;;11.60;99.90;;;;;;5088695;28;20430;-41
2022/04/23 03:37:05;;;;;;;24.35;20.80;;;11.60;99.90;;;;;;5089430;28;20446;-42
2022/04/23 03:39:34;;;;;;;23.75;20.52;;;11.50;99.90;;;;;;5091655;28;20475;-41
2022/04/23 03:42:03;;;;;;;21.70;19.00;;;11.50;99.90;;;;;;5087662;28;20742;-43
2022/04/23 03:44:30;;;;;;;23.00;18.60;;;11.50;99.90;;;;;;5092101;28;20031;-42
2022/04/23 03:46:56;;;;;;;22.52;19.98;;;11.50;99.90;;;;;;5086354;28;20020;-42
2022/04/23 03:49:23;;;;;;;22.92;20.52;;;11.40;99.90;;;;;;5081880;28;20093;-41
2022/04/23 03:51:51;;;;;;;22.35;19.95;;;11.50;99.90;;;;;;5102748;28;20041;-42
2022/04/23 03:54:17;;;;;;;22.60;20.20;;;11.40;99.90;;;;;;5093764;28;20131;-41
2022/04/23 03:56:43;;;;;;;19.17;17.23;;;11.40;99.90;;;;;;5104375;28;20138;-41
2022/04/23 03:59:09;;;;;;;22.60;20.20;;;11.40;99.90;;;;;;5092418;28;20031;-41
2022/04/23 04:01:34;;;;;;;22.55;18.80;;;11.40;99.90;;;;;;5104588;28;20092;-42
2022/04/23 04:04:01;;;;;;;22.65;19.98;;;11.30;99.90;;;;;;5091075;28;20032;-41
2022/04/23 04:06:29;;;;;;;23.05;20.63;;;11.30;99.90;;;;;;5104170;28;20024;-42
2022/04/23 04:08:58;;;;;;;21.90;19.50;;;11.30;99.90;;;;;;5092085;28;20024;-41
2022/04/23 04:11:23;;;;;;;23.73;20.23;;;11.30;99.90;;;;;;5103844;28;20170;-41
2022/04/23 04:13:49;;;;;;;22.77;19.42;;;11.30;99.90;;;;;;5094225;28;20548;-40
2022/04/23 04:16:15;;;;;;;21.38;19.08;;;11.20;99.90;;;;;;5101235;28;20036;-42
2022/04/23 04:18:41;;;;;;;23.80;20.25;;;11.20;99.90;;;;;;5095728;28;20028;-39
2022/04/23 04:21:13;;;;;;;23.25;20.10;;;11.20;99.90;;;;;;5099670;28;20510;-42
2022/04/23 04:23:39;;;;;;;22.45;19.73;;;11.20;99.90;;;;;;5098733;28;20074;-41
2022/04/23 04:26:06;;;;;;;25.90;20.90;;;11.20;99.90;;;;;;5088022;28;20039;-42
2022/04/23 04:28:32;;;;;;;23.05;20.63;;;11.20;99.90;;;;;;5090680;28;20110;-41
2022/04/23 04:33:42;;;;;;;22.58;20.17;;;11.10;99.90;;;;;;5090244;28;20109;-43
2022/04/23 04:36:07;;;;;;;22.77;19.58;;;11.10;99.90;;;;;;5098114;28;20077;-42
2022/04/23 04:38:33;;;;;;;21.60;18.73;;;11.10;99.90;;;;;;5089016;28;20020;-41
2022/04/23 04:40:59;;;;;;;18.88;16.35;;;11.10;99.90;;;;;;5098837;28;20035;-39
2022/04/23 04:43:27;;;;;;;22.02;19.70;;;11.10;99.90;;;;;;5088488;28;20035;-41
2022/04/23 04:45:56;;;;;;;22.23;19.90;;;11.00;99.90;;;;;;5099203;28;20352;-41
2022/04/23 04:48:25;;;;;;;21.40;18.55;;;11.00;99.90;;;;;;5088049;28;20059;-42
2022/04/23 04:50:50;;;;;;;23.67;20.02;;;11.00;99.90;;;;;;5100899;28;20024;-41
2022/04/23 04:53:18;;;;;;;23.63;20.27;;;11.00;99.90;;;;;;5086622;28;20588;-41
2022/04/23 04:55:49;;;;;;;23.27;20.65;;;11.00;99.90;;;;;;5099747;28;20357;-44
2022/04/23 04:58:15;;;;;;;21.80;19.48;;;11.00;99.90;;;;;;5087746;28;20044;-44
2022/04/23 05:00:40;;;;;;;23.77;20.60;;;10.90;99.90;;;;;;5099121;28;20560;-42
2022/04/23 05:03:06;;;;;;;23.65;21.00;;;11.00;99.90;;;;;;5088180;28;20761;-39
2022/04/23 05:05:31;;;;;;;22.13;19.55;;;11.00;99.90;;;;;;5096664;28;20039;-41
2022/04/23 05:07:57;;;;;;;23.48;20.40;;;11.00;99.90;;;;;;5089738;28;20073;-42
2022/04/23 05:10:22;;;;;;;23.23;19.52;;;10.90;99.90;;;;;;5094715;28;20452;-39
2022/04/23 05:12:48;;;;;;;21.98;19.35;;;11.00;99.90;;;;;;5093069;28;20049;-38
2022/04/23 05:15:13;;;;;;;22.05;19.45;;;11.00;99.90;;;;;;5090937;28;20081;-38
2022/04/23 05:17:39;;;;;;;22.40;20.00;;;11.00;99.90;;;;;;5096012;28;20035;-42
2022/04/23 05:20:08;;;;;;;23.17;19.90;;;11.00;99.90;;;;;;5088330;28;20440;-40
2022/04/23 05:22:33;;;;;;;24.40;20.77;;;11.00;99.90;;;;;;5096381;28;20146;-41
2022/04/23 05:24:59;;;;;;;22.88;19.77;;;11.00;99.90;;;;;;5087847;28;20123;-41
2022/04/23 05:27:27;;;;;;;24.88;19.38;;;11.10;99.90;;;;;;5097987;28;20643;-41
2022/04/23 05:29:53;;;;;;;20.42;18.17;;;11.10;99.90;;;;;;5087098;28;20818;-42
2022/04/23 05:32:18;;;;;;;21.50;19.20;;;11.10;99.90;;;;;;5098957;28;20027;-42
2022/04/23 05:34:47;;;;;;;20.60;18.40;;;11.20;99.90;;;;;;5086770;28;20020;-40
2022/04/23 05:37:19;;;;;;;21.98;19.67;;;11.20;99.90;;;;;;5097830;28;20386;-40
2022/04/23 05:39:44;;;;;;;21.63;19.33;;;11.20;99.90;;;;;;5087054;28;20063;-42
2022/04/23 05:42:10;;;;;;;22.25;19.45;;;11.30;99.90;;;;;;5099643;28;20118;-41
2022/04/23 05:44:35;;;;;;;21.63;19.42;;;11.30;99.90;;;;;;5085461;28;20499;-38
2022/04/23 05:47:01;;;;;;;21.50;19.23;;;11.30;99.90;;;;;;5097032;28;20032;-39
2022/04/23 05:49:27;;;;;;;21.92;18.42;;;11.40;99.90;;;;;;5087587;28;20066;-41
2022/04/23 05:51:53;;;;;;;23.02;20.25;;;11.40;99.90;;;;;;5094260;28;20085;-41
2022/04/23 05:54:18;;;;;;;21.70;19.45;;;11.30;99.90;;;;;;5090814;28;20028;-42
2022/04/23 05:56:44;;;;;;;22.73;20.13;;;11.40;99.90;;;;;;5090547;28;20039;-41
2022/04/23 05:59:12;;;;;;;20.73;18.52;;;11.40;99.90;;;;;;5093847;28;20031;-40
2022/04/23 06:01:38;;;;;;;23.10;20.25;;;11.30;99.90;;;;;;5088796;28;20027;-40
2022/04/23 06:04:03;;;;;;;22.88;19.75;;;11.40;99.90;;;;;;5095585;28;20032;-43
2022/04/23 06:06:29;;;;;;;22.73;19.88;;;11.40;99.90;;;;;;5086105;28;20032;-39
2022/04/23 06:08:54;;;;;;;22.15;19.42;;;11.40;99.90;;;;;;5097671;28;20393;-40
2022/04/23 06:11:20;;;;;;;20.38;18.15;;;11.40;99.90;;;;;;5087338;28;20024;-38
2022/04/23 06:13:45;;;;;;;21.67;19.38;;;11.50;99.90;;;;;;5097541;28;20073;-42
2022/04/23 06:16:14;;;;;;;23.70;20.42;;;11.50;99.90;;;;;;5086210;28;20384;-40
2022/04/23 06:18:42;;;;;;;22.90;19.50;;;11.60;99.90;;;;;;5098149;28;20027;-42
2022/04/23 06:21:08;;;;;;;21.92;19.55;;;11.60;99.90;;;;;;5086224;28;20063;-41
2022/04/23 06:23:33;;;;;;;22.17;19.00;;;11.60;99.90;;;;;;5098123;28;20122;-41
2022/04/23 06:25:59;;;;;;;20.83;18.55;;;11.60;99.90;;;;;;5095996;28;20023;-42
2022/04/23 06:28:25;;;;;;;21.02;18.67;;;11.70;99.90;;;;;;5099041;28;20054;-40
2022/04/23 06:30:59;;;;;;;20.38;17.88;;;11.60;99.90;;;;;;5088733;28;20020;-42
2022/04/23 06:33:28;;;;;;;21.45;18.85;;;11.70;99.90;;;;;;5094261;28;20029;-43
2022/04/23 06:35:56;;;;;;;20.75;18.20;;;11.70;99.90;;;;;;5089811;28;20134;-41
2022/04/23 06:38:28;;;;;;;18.90;16.88;;;11.70;99.90;;;;;;5093810;28;20020;-42
2022/04/23 06:40:53;;;;;;;19.60;17.58;;;11.70;99.90;;;;;;5090629;28;20020;-41
2022/04/23 06:43:19;;;;;;;19.85;17.77;;;11.70;99.90;;;;;;5087531;28;20084;-42
2022/04/23 06:45:45;;;;;;;19.20;17.13;;;11.80;99.90;;;;;;5090824;28;20028;-41
2022/04/23 06:48:13;;;;;;;18.48;16.45;;;11.80;99.90;;;;;;5085931;28;20063;-45
2022/04/23 06:50:39;;;;;;;20.95;17.73;;;11.90;99.90;;;;;;5093895;28;20032;-39
2022/04/23 06:53:05;;;;;;;18.80;16.60;;;12.00;99.90;;;;;;5085255;28;20038;-40
2022/04/23 06:55:30;;;;;;;19.08;17.15;;;12.00;99.90;;;;;;5095921;28;20104;-39
2022/04/23 06:57:56;;;;;;;17.55;15.80;;;12.00;99.90;;;;;;5085253;28;20491;-39
2022/04/23 07:00:22;;;;;;;18.13;16.25;;;12.10;99.90;;;;;;5095482;28;20051;-42
2022/04/23 07:02:51;;;;;;;20.90;18.40;;;12.10;99.90;;;;;;5084830;28;20070;-43
2022/04/23 07:05:18;;;;;;;20.23;17.90;;;12.10;99.90;;;;;;5096209;28;20035;-42
2022/04/23 07:08:01;;;;;;;20.65;18.48;;;12.10;99.90;;;;;;5083423;28;20143;-39
2022/04/23 07:10:28;;;;;;;20.80;18.60;;;12.20;99.90;;;;;;5091714;28;20059;-42
2022/04/23 07:12:55;;;;;;;20.90;18.65;;;12.30;99.90;;;;;;5104399;28;20733;-42
2022/04/23 07:15:25;;;;;;;20.08;17.98;;;12.30;99.90;;;;;;5091443;28;20028;-42
2022/04/23 07:17:51;;;;;;;21.15;17.98;;;12.30;99.90;;;;;;5105118;28;20124;-41
2022/04/23 07:20:18;;;;;;;19.77;17.73;;;12.40;99.90;;;;;;5089581;28;20040;-41
2022/04/23 07:25:30;;;;;;;19.13;17.05;;;12.50;99.90;;;;;;5097657;28;20042;-40
2022/04/23 07:27:56;;;;;;;19.33;17.33;;;12.60;99.90;;;;;;5104057;28;20030;-40
2022/04/23 07:30:22;;;;;;;21.77;19.48;;;12.70;99.90;;;;;;5094156;28;20012;-41
2022/04/23 07:32:47;;;;;;;19.88;17.77;;;12.70;99.90;;;;;;5101134;28;20543;-41
2022/04/23 07:37:57;;;;;;;22.85;20.20;;;12.80;99.90;;;;;;5101300;28;20147;-41
2022/04/23 07:40:23;;;;;;;22.40;20.10;;;12.80;99.90;;;;;;5098113;28;20057;-40
2022/04/23 07:42:48;;;;;;;20.73;18.52;;;12.80;99.90;;;;;;5097405;28;20059;-43
2022/04/23 07:45:14;;;;;;;20.65;18.15;;;12.80;99.90;;;;;;5100390;28;20024;-41
2022/04/23 07:47:40;;;;;;;20.27;18.10;;;12.90;99.90;;;;;;5095938;28;20023;-40
2022/04/23 07:50:09;;;;;;;19.83;17.73;;;13.00;99.90;;;;;;5102600;28;20077;-41
2022/04/23 07:52:35;;;;;;;20.63;18.42;;;13.00;99.90;;;;;;5094526;28;20027;-40
2022/04/23 07:55:00;;;;;;;21.80;19.02;;;13.10;99.90;;;;;;5103987;28;20028;-41
2022/04/23 07:57:26;;;;;;;20.88;18.77;;;13.10;99.90;;;;;;5092737;28;20188;-38
2022/04/23 07:59:52;;;;;;;22.02;19.23;;;13.10;99.90;;;;;;5104646;28;20046;-39
2022/04/23 08:02:17;;;;;;;21.58;18.85;;;13.20;99.90;;;;;;5092763;28;20475;-40
2022/04/23 08:04:42;;;;;;;20.98;18.75;;;13.20;99.90;;;;;;5104853;28;20553;-39
2022/04/23 08:07:08;;;;;;;20.33;18.23;;;13.30;99.90;;;;;;5092151;28;20024;-41
2022/04/23 08:09:37;;;;;;;22.08;18.50;;;13.20;99.90;;;;;;5104420;28;20224;-39
2022/04/23 08:12:06;;;;;;;22.50;18.55;;;13.30;99.90;;;;;;5092006;28;20031;-40
2022/04/23 08:14:32;;;;;;;21.35;18.42;;;13.40;99.90;;;;;;5105597;28;20109;-41
2022/04/23 08:16:58;;;;;;;17.20;15.50;;;13.40;99.90;;;;;;5094884;28;20024;-41
2022/04/23 08:19:23;;;;;;;18.65;16.75;;;13.50;99.90;;;;;;5101609;28;20046;-43
2022/04/23 08:21:49;;;;;;;22.00;18.35;;;13.60;99.90;;;;;;5098187;28;20023;-42
2022/04/23 08:24:14;;;;;;;22.33;19.48;;;13.70;99.90;;;;;;5088095;28;20051;-41
2022/04/23 08:26:40;;;;;;;21.58;19.38;;;13.70;99.90;;;;;;5089158;28;20119;-42
2022/04/23 08:31:49;;;;;;;26.83;20.08;;;13.80;99.90;;;;;;5087861;28;20093;-42
2022/04/23 08:34:15;;;;;;;20.65;18.55;;;13.80;99.90;;;;;;5092034;28;20478;-43
2022/04/23 08:36:43;;;;;;;19.63;17.63;;;13.90;99.90;;;;;;5085629;28;20028;-41
2022/04/23 08:39:09;;;;;;;22.60;20.20;;;13.90;99.90;;;;;;5093862;28;20043;-43
2022/04/23 08:41:35;;;;;;;25.08;22.30;;;14.00;99.90;;;;;;5084814;28;20016;-42
2022/04/23 08:44:05;;;;;;;22.63;19.63;;;14.00;99.90;;;;;;5092787;28;20116;-41
2022/04/23 08:46:35;;;;;;;24.92;21.02;;;14.10;99.90;;;;;;5101893;28;20040;-42
2022/04/23 08:49:16;;;;;;;22.25;19.85;;;14.20;99.90;;;;;;5092052;28;20025;-41
2022/04/23 08:51:52;;;;;;;25.15;21.40;;;14.20;99.90;;;;;;5084626;28;20094;-40
2022/04/23 08:54:18;;;;;;;22.45;20.10;;;14.40;99.90;;;;;;5092302;28;20032;-42
2022/04/23 08:56:46;;;;;;;22.77;19.77;;;14.50;99.90;;;;;;5084227;28;20513;-41
2022/04/23 08:59:13;;;;;;;22.17;19.88;;;14.50;99.90;;;;;;5095423;28;20023;-41
2022/04/23 09:01:39;;;;;;;20.77;18.58;;;14.60;99.90;;;;;;5085992;28;20085;-41
2022/04/23 09:04:06;;;;;;;20.20;17.98;;;14.60;99.90;;;;;;5099333;28;20511;-42
2022/04/23 09:06:37;;;;;;;23.77;19.75;;;14.70;99.90;;;;;;5084906;28;20470;-40
2022/04/23 09:09:11;;;;;;;20.25;18.08;;;14.80;99.90;;;;;;5098851;28;20040;-37
2022/04/23 09:11:39;;;;;;;19.73;17.50;;;14.90;99.60;;;;;;5084183;28;20030;-41
2022/04/23 09:14:06;;;;;;;20.50;18.30;;;15.10;99.60;;;;;;5098864;28;20062;-42
2022/04/23 09:25:13;;;;;;;25.00;19.45;;;15.50;98.30;;;;;;5094752;28;20070;-41
2022/04/23 09:27:42;;;;;;;21.27;17.88;;;15.50;98.20;;;;;;5086769;28;20024;-44
2022/04/23 09:30:10;;;;;;;22.63;19.42;;;15.40;98.20;;;;;;5099856;28;20047;-42
2022/04/23 09:32:36;;;;;;;21.15;18.52;;;15.40;98.20;;;;;;5086802;28;20024;-42
2022/04/23 09:35:12;;;;;;;18.35;16.45;;;15.50;98.20;;;;;;5098900;28;20037;-40
2022/04/23 09:40:27;;;;;;;21.88;18.73;;;15.60;98.00;;;;;;5099467;28;20180;-42
2022/04/23 09:42:58;;;;;;;24.67;20.00;;;15.60;97.90;;;;;;5086660;28;20044;-41
2022/04/23 09:45:26;;;;;;;20.10;17.65;;;15.60;97.50;;;;;;5098979;28;20046;-41
2022/04/23 09:47:52;;;;;;;22.10;18.42;;;15.60;97.60;;;;;;5087294;28;20474;-42
2022/04/23 09:50:18;;;;;;;24.42;21.30;;;15.60;97.50;;;;;;5097186;28;20755;-41
2022/04/23 09:52:45;;;;;;;20.50;18.23;;;15.60;97.20;;;;;;5087333;28;20043;-41
2022/04/23 09:55:12;;;;;;;22.50;18.42;;;15.70;97.30;;;;;;5096385;28;20477;-43
2022/04/23 09:57:38;;;;;;;21.55;19.25;;;15.80;97.20;;;;;;5089043;28;20508;-42
2022/04/23 10:00:05;;;;;;;22.85;19.95;;;16.00;96.90;;;;;;5093188;28;20564;-42
2022/04/23 10:02:32;;;;;;;21.52;18.15;;;16.20;96.50;;;;;;5090429;28;20558;-41
2022/04/23 10:05:01;;;;;;;23.30;20.10;;;16.30;96.10;;;;;;5091146;28;20047;-42
2022/04/23 10:07:29;;;;;;;19.20;17.20;;;16.30;95.70;;;;;;5093709;28;20043;-43
2022/04/23 10:10:03;;;;;;;23.02;19.83;;;16.10;95.90;;;;;;5088478;28;20171;-42
2022/04/23 10:12:37;;;;;;;18.73;16.63;;;16.10;95.90;;;;;;5094427;28;20024;-38
2022/04/23 10:15:02;;;;;;;22.20;18.98;;;16.00;96.40;;;;;;5088790;28;20069;-42
2022/04/23 10:17:31;;;;;;;21.85;18.90;;;16.10;96.00;;;;;;5095447;28;20058;-40
2022/04/23 10:19:57;;;;;;;20.80;17.95;;;16.10;95.80;;;;;;5087715;28;20089;-42
2022/04/23 10:22:39;;;;;;;24.10;18.73;;;16.10;95.80;;;;;;5096861;28;20032;-42
2022/04/23 10:25:29;;;;;;;22.92;18.77;;;16.10;95.80;;;;;;5086920;28;20051;-42
2022/04/23 10:27:56;;;;;;;18.90;16.90;;;16.20;96.00;;;;;;5090848;28;20028;-42
2022/04/23 10:30:22;;;;;;;18.92;16.88;;;16.30;96.00;;;;;;5104436;28;20031;-41
2022/04/23 10:32:47;;;;;;;21.08;18.80;;;16.40;96.10;;;;;;5094181;28;20034;-42
2022/04/23 10:35:19;;;;;;;20.67;18.02;;;16.50;95.20;;;;;;5104570;28;20106;-42
2022/04/23 10:37:49;;;;;;;22.77;18.23;;;16.60;95.00;;;;;;5093194;28;20479;-42
2022/04/23 10:40:18;;;;;;;22.05;17.73;;;16.60;94.90;;;;;;5105165;28;20031;-42
2022/04/23 10:43:22;;;;;;;19.45;16.05;;;16.60;94.80;;;;;;5094272;28;20031;-42
2022/04/23 10:45:48;;;;;;;19.02;15.43;;;16.70;94.90;;;;;;5000332;28;20030;-43
2022/04/23 10:48:23;;;;;;;21.65;19.35;;;16.70;95.00;;;;;;4991420;28;20022;-43
2022/04/23 10:50:59;;;;;;;18.98;15.35;;;16.70;94.80;;;;;;5054592;28;20508;-42
2022/04/23 10:53:48;;;;;;;17.00;15.20;;;16.70;95.00;;;;;;5093943;28;20032;-41
2022/04/23 10:56:15;;;;;;;23.27;19.77;;;16.80;95.10;;;;;;5104139;28;20054;-42
2022/04/23 10:58:41;;;;;;;18.80;16.80;;;16.90;94.60;;;;;;5093434;28;20787;-43
2022/04/23 11:01:29;;;;;;;20.63;17.75;;;16.90;94.60;;;;;;5104098;28;20020;-41
2022/04/23 11:03:55;;;;;;;21.33;17.52;;;16.90;94.40;;;;;;5083970;28;20074;-42
2022/04/23 11:12:27;;;;;;;25.00;19.00;;;17.40;93.80;;;;;;5100098;28;20032;-41
2022/04/23 11:14:56;;;;;;;21.35;19.00;;;17.60;93.80;;;;;;5098872;28;20027;-43
2022/04/23 11:17:45;;;;;;;18.80;16.73;;;17.70;93.50;;;;;;5100435;28;20047;-43
2022/04/23 11:20:11;;;;;;;25.73;20.60;;;17.80;93.30;;;;;;5100487;28;20023;-43
2022/04/23 11:22:37;;;;;;;24.42;20.75;;;17.80;92.50;;;;;;5100091;28;20028;-42
2022/04/23 11:25:03;;;;;;;20.40;18.20;;;17.80;92.50;;;;;;5096267;28;20081;-43
2022/04/23 11:27:32;;;;;;;19.63;17.50;;;17.80;92.50;;;;;;5084249;28;20384;-42
2022/04/23 11:29:59;;;;;;;21.58;18.98;;;17.90;92.50;;;;;;5094745;28;20431;-42
2022/04/23 11:32:25;;;;;;;22.05;19.52;;;18.00;92.40;;;;;;5085413;28;20036;-42
2022/04/23 11:35:09;;;;;;;21.77;18.83;;;17.90;92.00;;;;;;5084271;28;20039;-42
2022/04/23 11:37:39;;;;;;;19.77;17.45;;;18.00;92.10;;;;;;5083983;28;20024;-42
2022/04/23 11:40:12;;;;;;;21.83;19.05;;;18.10;92.10;;;;;;5094829;28;20572;-42
2022/04/23 11:42:46;;;;;;;21.65;17.42;;;18.10;91.60;;;;;;5102178;28;20043;-42
2022/04/23 11:45:14;;;;;;;22.30;19.48;;;18.10;91.70;;;;;;5093436;28;20028;-44
2022/04/23 11:47:39;;;;;;;23.42;20.50;;;18.00;91.20;;;;;;5103580;28;20054;-42
2022/04/23 11:50:20;;;;;;;23.92;19.30;;;18.00;91.10;;;;;;5092805;28;20023;-41
2022/04/23 11:52:58;;;;;;;19.52;17.40;;;18.00;91.30;;;;;;5103375;28;20031;-42
2022/04/23 11:55:25;;;;;;;21.27;18.55;;;18.10;91.80;;;;;;5092862;28;20023;-42
2022/04/23 11:58:04;;;;;;;19.50;17.30;;;18.20;91.50;;;;;;5104413;28;20051;-41
2022/04/23 12:00:33;;;;;;;21.45;17.13;;;18.30;91.30;;;;;;5093388;28;20024;-42
2022/04/23 12:02:59;;;;;;;19.60;16.55;;;18.30;91.00;;;;;;5084551;28;20039;-41
2022/04/23 12:05:32;;;;;;;22.27;17.90;;;18.30;90.50;;;;;;5096088;28;20020;-42
2022/04/23 12:07:59;;;;;;;20.20;18.02;;;18.30;90.20;;;;;;5084598;28;20448;-42
2022/04/23 12:10:27;;;;;;;18.40;16.50;;;18.30;90.40;;;;;;5096219;28;20052;-42
2022/04/23 12:12:55;;;;;;;19.85;17.30;;;18.40;90.50;;;;;;5084432;28;20028;-42
2022/04/23 12:15:21;;;;;;;21.55;17.13;;;18.50;90.10;;;;;;5097243;28;20065;-42
2022/04/23 12:17:50;;;;;;;18.83;16.60;;;18.50;89.90;;;;;;5084723;28;20020;-43
2022/04/23 12:20:21;;;;;;;17.33;15.52;;;18.60;89.50;;;;;;5096485;28;20028;-43
2022/04/23 12:23:01;;;;;;;18.42;15.40;;;18.70;89.90;;;;;;5085248;28;20098;-42
2022/04/23 12:25:29;;;;;;;18.80;15.00;;;18.80;89.80;;;;;;5094105;28;20066;-42
2022/04/23 12:27:59;;;;;;;20.50;16.70;;;19.00;89.60;;;;;;5104770;28;20031;-42
2022/04/23 12:42:02;;;;;;;18.02;15.50;;;19.00;86.70;;;;;;5092511;28;20034;-43
2022/04/23 12:44:39;;;;;;;19.17;15.70;;;19.00;86.50;;;;;;5101407;28;20394;-41
2022/04/23 12:47:06;;;;;;;19.08;16.00;;;19.10;85.70;;;;;;5094156;28;20162;-41
2022/04/23 12:49:45;;;;;;;18.60;15.98;;;19.10;85.10;;;;;;5107524;28;20107;-41
2022/04/23 12:52:17;;;;;;;17.02;14.07;;;19.10;85.30;;;;;;5095831;28;20030;-42
2022/04/23 12:55:12;;;;;;;16.15;14.43;;;19.10;85.70;;;;;;5087379;28;20044;-43
2022/04/23 12:57:39;;;;;;;15.48;13.85;;;19.00;84.90;;;;;;5098237;28;20063;-38
2022/04/23 13:00:06;;;;;;;15.32;13.63;;;19.00;85.20;;;;;;5088277;28;20361;-42
2022/04/23 13:02:36;;;;;;;15.20;13.63;;;19.10;85.60;;;;;;5098463;28;20059;-40
2022/04/23 13:05:07;;;;;;;16.58;14.68;;;19.20;85.20;;;;;;5088081;28;20498;-42
2022/04/23 13:10:19;;;;;;;16.30;14.60;;;19.20;83.20;;;;;;5088847;28;20063;-42
2022/04/23 13:12:44;;;;;;;17.67;15.27;;;19.20;82.70;;;;;;5094779;28;20596;-41
2022/04/23 13:15:11;;;;;;;16.48;14.32;;;19.30;82.30;;;;;;5087847;28;20491;-43